sensor_id;sensor_type;location;lat;lon;timestamp;P1;durP1;ratioP1;P2;durP2;ratioP2
6937;SDS011;40040;42.706;23.372;2022-09-27T00:01:22;10.27;;;6.97;;
6937;SDS011;40040;42.706;23.372;2022-09-27T00:03:51;8.45;;;7.00;;
6937;SDS011;40040;42.706;23.372;2022-09-27T00:06:21;7.88;;;7.18;;
6937;SDS011;40040;42.706;23.372;2022-09-27T00:08:50;8.23;;;7.45;;
6937;SDS011;40040;42.706;23.372;2022-09-27T00:11:19;8.13;;;7.18;;
6937;SDS011;40040;42.706;23.372;2022-09-27T00:13:51;8.77;;;7.03;;
6937;SDS011;40040;42.706;23.372;2022-09-27T00:16:21;9.50;;;7.05;;
6937;SDS011;40040;42.706;23.372;2022-09-27T00:18:48;12.35;;;7.40;;
6937;SDS011;40040;42.706;23.372;2022-09-27T00:21:15;9.68;;;7.43;;
6937;SDS011;40040;42.706;23.372;2022-09-27T00:23:42;9.48;;;7.30;;
6937;SDS011;40040;42.706;23.372;2022-09-27T00:26:09;9.40;;;7.07;;
6937;SDS011;40040;42.706;23.372;2022-09-27T00:28:37;7.70;;;6.95;;
6937;SDS011;40040;42.706;23.372;2022-09-27T00:31:08;8.10;;;6.65;;
6937;SDS011;40040;42.706;23.372;2022-09-27T00:33:43;7.75;;;6.95;;
6937;SDS011;40040;42.706;23.372;2022-09-27T00:36:09;8.13;;;6.78;;
6937;SDS011;40040;42.706;23.372;2022-09-27T00:38:36;9.77;;;7.00;;
6937;SDS011;40040;42.706;23.372;2022-09-27T00:41:03;8.40;;;6.80;;
6937;SDS011;40040;42.706;23.372;2022-09-27T00:43:41;8.73;;;7.30;;
6937;SDS011;40040;42.706;23.372;2022-09-27T00:46:10;8.48;;;6.82;;
6937;SDS011;40040;42.706;23.372;2022-09-27T00:48:43;10.40;;;7.60;;
6937;SDS011;40040;42.706;23.372;2022-09-27T00:51:12;10.43;;;7.40;;
6937;SDS011;40040;42.706;23.372;2022-09-27T00:53:41;9.07;;;7.25;;
6937;SDS011;40040;42.706;23.372;2022-09-27T00:56:11;12.65;;;9.00;;
6937;SDS011;40040;42.706;23.372;2022-09-27T00:58:44;8.77;;;7.65;;
6937;SDS011;40040;42.706;23.372;2022-09-27T01:01:15;8.55;;;6.68;;
6937;SDS011;40040;42.706;23.372;2022-09-27T01:03:45;8.20;;;6.20;;
6937;SDS011;40040;42.706;23.372;2022-09-27T01:06:22;7.53;;;6.65;;
6937;SDS011;40040;42.706;23.372;2022-09-27T01:08:49;9.60;;;7.30;;
6937;SDS011;40040;42.706;23.372;2022-09-27T01:11:23;8.95;;;7.47;;
6937;SDS011;40040;42.706;23.372;2022-09-27T01:14:03;9.45;;;7.25;;
6937;SDS011;40040;42.706;23.372;2022-09-27T01:16:40;9.10;;;6.88;;
6937;SDS011;40040;42.706;23.372;2022-09-27T01:19:17;9.45;;;7.63;;
6937;SDS011;40040;42.706;23.372;2022-09-27T01:22:01;8.32;;;6.93;;
6937;SDS011;40040;42.706;23.372;2022-09-27T01:24:51;11.20;;;7.45;;
6937;SDS011;40040;42.706;23.372;2022-09-27T01:30:24;16.50;;;10.27;;
6937;SDS011;40040;42.706;23.372;2022-09-27T01:32:57;28.38;;;16.83;;
6937;SDS011;40040;42.706;23.372;2022-09-27T01:35:34;35.38;;;19.38;;
6937;SDS011;40040;42.706;23.372;2022-09-27T01:38:10;22.98;;;15.70;;
6937;SDS011;40040;42.706;23.372;2022-09-27T01:40:42;21.48;;;13.40;;
6937;SDS011;40040;42.706;23.372;2022-09-27T01:43:17;19.50;;;12.50;;
6937;SDS011;40040;42.706;23.372;2022-09-27T01:45:49;15.25;;;11.07;;
6937;SDS011;40040;42.706;23.372;2022-09-27T01:48:21;9.80;;;8.32;;
6937;SDS011;40040;42.706;23.372;2022-09-27T01:50:50;9.75;;;8.32;;
6937;SDS011;40040;42.706;23.372;2022-09-27T01:53:21;12.50;;;10.50;;
6937;SDS011;40040;42.706;23.372;2022-09-27T01:55:53;12.93;;;8.43;;
6937;SDS011;40040;42.706;23.372;2022-09-27T01:58:22;13.93;;;8.98;;
6937;SDS011;40040;42.706;23.372;2022-09-27T02:00:55;15.02;;;8.75;;
6937;SDS011;40040;42.706;23.372;2022-09-27T02:03:24;10.27;;;8.40;;
6937;SDS011;40040;42.706;23.372;2022-09-27T02:05:54;10.73;;;8.65;;
6937;SDS011;40040;42.706;23.372;2022-09-27T02:08:27;8.98;;;8.07;;
6937;SDS011;40040;42.706;23.372;2022-09-27T02:11:00;11.00;;;8.90;;
6937;SDS011;40040;42.706;23.372;2022-09-27T02:13:33;9.18;;;8.20;;
6937;SDS011;40040;42.706;23.372;2022-09-27T02:16:09;8.90;;;8.00;;
6937;SDS011;40040;42.706;23.372;2022-09-27T02:18:46;8.85;;;7.75;;
6937;SDS011;40040;42.706;23.372;2022-09-27T02:21:19;9.57;;;7.63;;
6937;SDS011;40040;42.706;23.372;2022-09-27T02:23:51;9.40;;;7.45;;
6937;SDS011;40040;42.706;23.372;2022-09-27T02:26:23;8.30;;;6.78;;
6937;SDS011;40040;42.706;23.372;2022-09-27T02:28:55;8.80;;;7.90;;
6937;SDS011;40040;42.706;23.372;2022-09-27T02:31:28;9.43;;;6.82;;
6937;SDS011;40040;42.706;23.372;2022-09-27T02:33:55;7.38;;;6.40;;
6937;SDS011;40040;42.706;23.372;2022-09-27T02:36:26;8.02;;;7.05;;
6937;SDS011;40040;42.706;23.372;2022-09-27T02:38:54;10.43;;;7.97;;
6937;SDS011;40040;42.706;23.372;2022-09-27T02:41:22;10.52;;;7.60;;
6937;SDS011;40040;42.706;23.372;2022-09-27T02:43:49;9.27;;;7.43;;
6937;SDS011;40040;42.706;23.372;2022-09-27T02:46:23;10.02;;;8.02;;
6937;SDS011;40040;42.706;23.372;2022-09-27T02:49:02;7.95;;;7.15;;
6937;SDS011;40040;42.706;23.372;2022-09-27T02:51:46;7.68;;;6.75;;
6937;SDS011;40040;42.706;23.372;2022-09-27T02:54:25;8.70;;;7.50;;
6937;SDS011;40040;42.706;23.372;2022-09-27T02:57:00;8.77;;;7.57;;
6937;SDS011;40040;42.706;23.372;2022-09-27T02:59:36;8.73;;;7.40;;
6937;SDS011;40040;42.706;23.372;2022-09-27T03:02:12;9.73;;;7.65;;
6937;SDS011;40040;42.706;23.372;2022-09-27T03:04:46;8.02;;;7.25;;
6937;SDS011;40040;42.706;23.372;2022-09-27T03:07:19;15.52;;;12.07;;
6937;SDS011;40040;42.706;23.372;2022-09-27T03:09:48;8.60;;;7.47;;
6937;SDS011;40040;42.706;23.372;2022-09-27T03:12:17;11.75;;;7.97;;
6937;SDS011;40040;42.706;23.372;2022-09-27T03:14:50;9.02;;;8.13;;
6937;SDS011;40040;42.706;23.372;2022-09-27T03:17:18;8.77;;;7.68;;
6937;SDS011;40040;42.706;23.372;2022-09-27T03:19:45;12.73;;;7.93;;
6937;SDS011;40040;42.706;23.372;2022-09-27T03:22:12;10.32;;;7.55;;
6937;SDS011;40040;42.706;23.372;2022-09-27T03:24:38;11.55;;;8.13;;
6937;SDS011;40040;42.706;23.372;2022-09-27T03:27:06;9.20;;;8.10;;
6937;SDS011;40040;42.706;23.372;2022-09-27T03:29:34;9.15;;;7.95;;
6937;SDS011;40040;42.706;23.372;2022-09-27T03:32:01;10.35;;;8.05;;
6937;SDS011;40040;42.706;23.372;2022-09-27T03:34:29;9.38;;;8.38;;
6937;SDS011;40040;42.706;23.372;2022-09-27T03:36:56;10.40;;;8.27;;
6937;SDS011;40040;42.706;23.372;2022-09-27T03:39:23;10.45;;;8.20;;
6937;SDS011;40040;42.706;23.372;2022-09-27T03:41:50;11.88;;;8.70;;
6937;SDS011;40040;42.706;23.372;2022-09-27T03:44:17;8.88;;;7.63;;
6937;SDS011;40040;42.706;23.372;2022-09-27T03:46:44;10.95;;;8.30;;
6937;SDS011;40040;42.706;23.372;2022-09-27T03:49:11;10.40;;;8.82;;
6937;SDS011;40040;42.706;23.372;2022-09-27T03:51:39;8.27;;;7.45;;
6937;SDS011;40040;42.706;23.372;2022-09-27T03:54:06;10.75;;;8.05;;
6937;SDS011;40040;42.706;23.372;2022-09-27T03:56:33;8.70;;;7.07;;
6937;SDS011;40040;42.706;23.372;2022-09-27T03:59:00;9.38;;;7.43;;
6937;SDS011;40040;42.706;23.372;2022-09-27T04:01:27;12.18;;;8.55;;
6937;SDS011;40040;42.706;23.372;2022-09-27T04:03:54;8.73;;;7.82;;
6937;SDS011;40040;42.706;23.372;2022-09-27T04:06:21;10.45;;;7.85;;
6937;SDS011;40040;42.706;23.372;2022-09-27T04:08:49;11.88;;;10.65;;
6937;SDS011;40040;42.706;23.372;2022-09-27T04:11:16;12.13;;;9.25;;
6937;SDS011;40040;42.706;23.372;2022-09-27T04:13:43;9.75;;;8.63;;
6937;SDS011;40040;42.706;23.372;2022-09-27T04:16:13;10.23;;;8.73;;
6937;SDS011;40040;42.706;23.372;2022-09-27T04:18:40;9.38;;;8.13;;
6937;SDS011;40040;42.706;23.372;2022-09-27T04:21:07;9.40;;;8.23;;
6937;SDS011;40040;42.706;23.372;2022-09-27T04:23:34;11.75;;;8.30;;
6937;SDS011;40040;42.706;23.372;2022-09-27T04:26:03;10.90;;;8.90;;
6937;SDS011;40040;42.706;23.372;2022-09-27T04:28:30;15.45;;;12.68;;
6937;SDS011;40040;42.706;23.372;2022-09-27T04:30:57;10.68;;;8.73;;
6937;SDS011;40040;42.706;23.372;2022-09-27T04:33:24;8.80;;;7.93;;
6937;SDS011;40040;42.706;23.372;2022-09-27T04:35:51;10.60;;;8.18;;
6937;SDS011;40040;42.706;23.372;2022-09-27T04:38:35;10.10;;;8.13;;
6937;SDS011;40040;42.706;23.372;2022-09-27T04:41:04;11.27;;;8.75;;
6937;SDS011;40040;42.706;23.372;2022-09-27T04:43:31;9.23;;;8.27;;
6937;SDS011;40040;42.706;23.372;2022-09-27T04:45:58;9.32;;;8.43;;
6937;SDS011;40040;42.706;23.372;2022-09-27T04:48:25;9.98;;;8.35;;
6937;SDS011;40040;42.706;23.372;2022-09-27T04:50:55;10.90;;;9.02;;
6937;SDS011;40040;42.706;23.372;2022-09-27T04:53:23;12.10;;;8.77;;
6937;SDS011;40040;42.706;23.372;2022-09-27T04:55:51;12.25;;;8.95;;
6937;SDS011;40040;42.706;23.372;2022-09-27T04:58:19;12.00;;;9.27;;
6937;SDS011;40040;42.706;23.372;2022-09-27T05:00:46;10.50;;;8.68;;
6937;SDS011;40040;42.706;23.372;2022-09-27T05:03:15;11.20;;;9.23;;
6937;SDS011;40040;42.706;23.372;2022-09-27T05:05:43;10.95;;;8.98;;
6937;SDS011;40040;42.706;23.372;2022-09-27T05:08:09;11.27;;;9.13;;
6937;SDS011;40040;42.706;23.372;2022-09-27T05:10:36;11.88;;;8.52;;
6937;SDS011;40040;42.706;23.372;2022-09-27T05:13:03;10.73;;;8.75;;
6937;SDS011;40040;42.706;23.372;2022-09-27T05:15:32;12.70;;;9.07;;
6937;SDS011;40040;42.706;23.372;2022-09-27T05:18:00;10.65;;;8.52;;
6937;SDS011;40040;42.706;23.372;2022-09-27T05:20:27;10.75;;;9.18;;
6937;SDS011;40040;42.706;23.372;2022-09-27T05:22:54;9.30;;;8.20;;
6937;SDS011;40040;42.706;23.372;2022-09-27T05:25:21;9.90;;;8.77;;
6937;SDS011;40040;42.706;23.372;2022-09-27T05:27:48;10.82;;;8.82;;
6937;SDS011;40040;42.706;23.372;2022-09-27T05:30:15;16.30;;;12.02;;
6937;SDS011;40040;42.706;23.372;2022-09-27T05:32:43;18.23;;;11.93;;
6937;SDS011;40040;42.706;23.372;2022-09-27T05:35:14;19.85;;;13.82;;
6937;SDS011;40040;42.706;23.372;2022-09-27T05:37:42;15.70;;;10.70;;
6937;SDS011;40040;42.706;23.372;2022-09-27T05:40:09;16.80;;;12.65;;
6937;SDS011;40040;42.706;23.372;2022-09-27T05:42:37;14.75;;;10.73;;
6937;SDS011;40040;42.706;23.372;2022-09-27T05:45:04;20.55;;;14.07;;
6937;SDS011;40040;42.706;23.372;2022-09-27T05:47:32;18.02;;;13.07;;
6937;SDS011;40040;42.706;23.372;2022-09-27T05:50:00;22.75;;;15.68;;
6937;SDS011;40040;42.706;23.372;2022-09-27T05:52:27;44.30;;;30.67;;
6937;SDS011;40040;42.706;23.372;2022-09-27T05:54:54;26.75;;;19.00;;
6937;SDS011;40040;42.706;23.372;2022-09-27T05:57:22;16.60;;;11.68;;
6937;SDS011;40040;42.706;23.372;2022-09-27T05:59:49;35.53;;;23.60;;
6937;SDS011;40040;42.706;23.372;2022-09-27T06:02:16;22.33;;;16.42;;
6937;SDS011;40040;42.706;23.372;2022-09-27T06:04:43;16.77;;;12.20;;
6937;SDS011;40040;42.706;23.372;2022-09-27T06:07:11;15.65;;;11.68;;
6937;SDS011;40040;42.706;23.372;2022-09-27T06:09:38;15.10;;;11.77;;
6937;SDS011;40040;42.706;23.372;2022-09-27T06:12:06;20.92;;;15.05;;
6937;SDS011;40040;42.706;23.372;2022-09-27T06:14:35;17.45;;;12.15;;
6937;SDS011;40040;42.706;23.372;2022-09-27T06:17:02;18.15;;;12.23;;
6937;SDS011;40040;42.706;23.372;2022-09-27T06:19:29;14.23;;;11.68;;
6937;SDS011;40040;42.706;23.372;2022-09-27T06:21:56;16.33;;;12.38;;
6937;SDS011;40040;42.706;23.372;2022-09-27T06:24:24;17.08;;;13.10;;
6937;SDS011;40040;42.706;23.372;2022-09-27T06:26:54;16.23;;;14.32;;
6937;SDS011;40040;42.706;23.372;2022-09-27T06:29:21;17.00;;;12.30;;
6937;SDS011;40040;42.706;23.372;2022-09-27T06:31:48;18.58;;;12.85;;
6937;SDS011;40040;42.706;23.372;2022-09-27T06:34:15;15.82;;;11.90;;
6937;SDS011;40040;42.706;23.372;2022-09-27T06:36:41;15.05;;;12.38;;
6937;SDS011;40040;42.706;23.372;2022-09-27T06:39:08;16.83;;;13.32;;
6937;SDS011;40040;42.706;23.372;2022-09-27T06:41:36;18.27;;;14.23;;
6937;SDS011;40040;42.706;23.372;2022-09-27T06:44:03;19.23;;;13.70;;
6937;SDS011;40040;42.706;23.372;2022-09-27T06:46:30;21.13;;;14.63;;
6937;SDS011;40040;42.706;23.372;2022-09-27T06:48:57;16.55;;;12.50;;
6937;SDS011;40040;42.706;23.372;2022-09-27T06:51:24;17.30;;;12.52;;
6937;SDS011;40040;42.706;23.372;2022-09-27T06:53:51;16.65;;;12.43;;
6937;SDS011;40040;42.706;23.372;2022-09-27T06:56:18;14.63;;;11.85;;
6937;SDS011;40040;42.706;23.372;2022-09-27T06:58:46;17.65;;;11.68;;
6937;SDS011;40040;42.706;23.372;2022-09-27T07:01:31;15.10;;;12.35;;
6937;SDS011;40040;42.706;23.372;2022-09-27T07:03:57;23.20;;;16.17;;
6937;SDS011;40040;42.706;23.372;2022-09-27T07:06:24;23.25;;;15.57;;
6937;SDS011;40040;42.706;23.372;2022-09-27T07:08:51;42.22;;;23.92;;
6937;SDS011;40040;42.706;23.372;2022-09-27T07:11:19;27.90;;;17.70;;
6937;SDS011;40040;42.706;23.372;2022-09-27T07:13:49;16.70;;;13.07;;
6937;SDS011;40040;42.706;23.372;2022-09-27T07:16:16;17.50;;;13.95;;
6937;SDS011;40040;42.706;23.372;2022-09-27T07:18:43;17.60;;;12.63;;
6937;SDS011;40040;42.706;23.372;2022-09-27T07:21:10;15.18;;;12.25;;
6937;SDS011;40040;42.706;23.372;2022-09-27T07:23:40;14.88;;;12.13;;
6937;SDS011;40040;42.706;23.372;2022-09-27T07:26:07;18.58;;;13.02;;
6937;SDS011;40040;42.706;23.372;2022-09-27T07:28:35;11.82;;;10.00;;
6937;SDS011;40040;42.706;23.372;2022-09-27T07:31:06;13.02;;;10.35;;
6937;SDS011;40040;42.706;23.372;2022-09-27T07:33:33;11.68;;;10.02;;
6937;SDS011;40040;42.706;23.372;2022-09-27T07:36:05;11.60;;;9.68;;
6937;SDS011;40040;42.706;23.372;2022-09-27T07:38:32;12.23;;;9.93;;
6937;SDS011;40040;42.706;23.372;2022-09-27T07:41:04;12.07;;;10.05;;
6937;SDS011;40040;42.706;23.372;2022-09-27T07:43:31;13.25;;;10.93;;
6937;SDS011;40040;42.706;23.372;2022-09-27T07:45:58;18.13;;;14.40;;
6937;SDS011;40040;42.706;23.372;2022-09-27T07:48:26;12.32;;;10.35;;
6937;SDS011;40040;42.706;23.372;2022-09-27T07:50:53;36.70;;;24.88;;
6937;SDS011;40040;42.706;23.372;2022-09-27T07:53:20;23.60;;;16.85;;
6937;SDS011;40040;42.706;23.372;2022-09-27T07:55:49;102.60;;;55.25;;
6937;SDS011;40040;42.706;23.372;2022-09-27T07:58:17;85.22;;;47.05;;
6937;SDS011;40040;42.706;23.372;2022-09-27T08:00:46;67.20;;;38.38;;
6937;SDS011;40040;42.706;23.372;2022-09-27T08:03:14;19.13;;;12.23;;
6937;SDS011;40040;42.706;23.372;2022-09-27T08:05:44;34.90;;;22.77;;
6937;SDS011;40040;42.706;23.372;2022-09-27T08:08:12;16.88;;;12.85;;
6937;SDS011;40040;42.706;23.372;2022-09-27T08:10:39;64.63;;;38.35;;
6937;SDS011;40040;42.706;23.372;2022-09-27T08:13:08;19.10;;;13.68;;
6937;SDS011;40040;42.706;23.372;2022-09-27T08:15:35;17.17;;;13.68;;
6937;SDS011;40040;42.706;23.372;2022-09-27T08:18:04;16.00;;;12.45;;
6937;SDS011;40040;42.706;23.372;2022-09-27T08:20:31;15.10;;;11.55;;
6937;SDS011;40040;42.706;23.372;2022-09-27T08:23:00;12.50;;;10.40;;
6937;SDS011;40040;42.706;23.372;2022-09-27T08:25:28;16.42;;;11.80;;
6937;SDS011;40040;42.706;23.372;2022-09-27T08:27:55;17.63;;;12.27;;
6937;SDS011;40040;42.706;23.372;2022-09-27T08:30:23;19.65;;;13.30;;
6937;SDS011;40040;42.706;23.372;2022-09-27T08:32:53;17.55;;;12.95;;
6937;SDS011;40040;42.706;23.372;2022-09-27T08:35:21;15.30;;;11.98;;
6937;SDS011;40040;42.706;23.372;2022-09-27T08:37:51;26.70;;;17.27;;
6937;SDS011;40040;42.706;23.372;2022-09-27T08:40:20;63.00;;;37.67;;
6937;SDS011;40040;42.706;23.372;2022-09-27T08:42:55;22.50;;;16.25;;
6937;SDS011;40040;42.706;23.372;2022-09-27T08:45:28;14.30;;;10.50;;
6937;SDS011;40040;42.706;23.372;2022-09-27T08:47:59;14.20;;;10.63;;
6937;SDS011;40040;42.706;23.372;2022-09-27T08:50:28;13.40;;;10.32;;
6937;SDS011;40040;42.706;23.372;2022-09-27T08:52:59;20.30;;;14.43;;
6937;SDS011;40040;42.706;23.372;2022-09-27T08:55:31;99.63;;;50.95;;
6937;SDS011;40040;42.706;23.372;2022-09-27T08:58:02;118.13;;;61.42;;
6937;SDS011;40040;42.706;23.372;2022-09-27T09:00:37;139.73;;;72.53;;
6937;SDS011;40040;42.706;23.372;2022-09-27T09:03:04;87.50;;;50.78;;
6937;SDS011;40040;42.706;23.372;2022-09-27T09:05:35;26.50;;;18.13;;
6937;SDS011;40040;42.706;23.372;2022-09-27T09:08:06;40.85;;;23.13;;
6937;SDS011;40040;42.706;23.372;2022-09-27T09:10:58;21.27;;;13.55;;
6937;SDS011;40040;42.706;23.372;2022-09-27T09:13:59;14.52;;;10.75;;
6937;SDS011;40040;42.706;23.372;2022-09-27T09:16:42;12.45;;;10.52;;
6937;SDS011;40040;42.706;23.372;2022-09-27T09:19:21;14.35;;;9.90;;
6937;SDS011;40040;42.706;23.372;2022-09-27T09:22:03;14.32;;;10.85;;
6937;SDS011;40040;42.706;23.372;2022-09-27T09:24:42;12.80;;;9.73;;
6937;SDS011;40040;42.706;23.372;2022-09-27T09:27:23;12.38;;;9.93;;
6937;SDS011;40040;42.706;23.372;2022-09-27T09:32:54;11.52;;;9.48;;
6937;SDS011;40040;42.706;23.372;2022-09-27T09:35:34;11.85;;;10.23;;
6937;SDS011;40040;42.706;23.372;2022-09-27T09:38:08;10.70;;;8.88;;
6937;SDS011;40040;42.706;23.372;2022-09-27T09:40:39;14.95;;;12.70;;
6937;SDS011;40040;42.706;23.372;2022-09-27T09:43:12;12.10;;;9.70;;
6937;SDS011;40040;42.706;23.372;2022-09-27T09:45:44;11.82;;;9.95;;
6937;SDS011;40040;42.706;23.372;2022-09-27T09:48:16;11.07;;;9.40;;
6937;SDS011;40040;42.706;23.372;2022-09-27T09:50:52;11.65;;;8.68;;
6937;SDS011;40040;42.706;23.372;2022-09-27T09:53:22;9.88;;;8.88;;
6937;SDS011;40040;42.706;23.372;2022-09-27T09:56:01;11.15;;;9.50;;
6937;SDS011;40040;42.706;23.372;2022-09-27T09:58:33;11.43;;;9.25;;
6937;SDS011;40040;42.706;23.372;2022-09-27T10:01:10;12.88;;;8.90;;
6937;SDS011;40040;42.706;23.372;2022-09-27T10:03:42;10.88;;;9.25;;
6937;SDS011;40040;42.706;23.372;2022-09-27T10:06:09;10.55;;;8.98;;
6937;SDS011;40040;42.706;23.372;2022-09-27T10:08:37;12.80;;;10.10;;
6937;SDS011;40040;42.706;23.372;2022-09-27T10:11:05;10.57;;;8.88;;
6937;SDS011;40040;42.706;23.372;2022-09-27T10:13:34;10.20;;;8.35;;
6937;SDS011;40040;42.706;23.372;2022-09-27T10:16:02;14.02;;;9.90;;
6937;SDS011;40040;42.706;23.372;2022-09-27T10:18:32;10.43;;;8.63;;
6937;SDS011;40040;42.706;23.372;2022-09-27T10:21:03;9.77;;;8.20;;
6937;SDS011;40040;42.706;23.372;2022-09-27T10:23:33;9.70;;;7.88;;
6937;SDS011;40040;42.706;23.372;2022-09-27T10:26:02;9.52;;;8.40;;
6937;SDS011;40040;42.706;23.372;2022-09-27T10:28:31;9.68;;;8.35;;
6937;SDS011;40040;42.706;23.372;2022-09-27T10:31:02;11.85;;;9.27;;
6937;SDS011;40040;42.706;23.372;2022-09-27T10:33:30;10.68;;;8.88;;
6937;SDS011;40040;42.706;23.372;2022-09-27T10:35:58;9.90;;;7.85;;
6937;SDS011;40040;42.706;23.372;2022-09-27T10:38:27;9.98;;;7.85;;
6937;SDS011;40040;42.706;23.372;2022-09-27T10:40:56;9.13;;;8.02;;
6937;SDS011;40040;42.706;23.372;2022-09-27T10:43:41;9.20;;;8.15;;
6937;SDS011;40040;42.706;23.372;2022-09-27T10:46:11;8.88;;;7.97;;
6937;SDS011;40040;42.706;23.372;2022-09-27T10:48:41;12.48;;;9.52;;
6937;SDS011;40040;42.706;23.372;2022-09-27T10:51:20;8.57;;;7.78;;
6937;SDS011;40040;42.706;23.372;2022-09-27T10:53:50;9.18;;;8.32;;
6937;SDS011;40040;42.706;23.372;2022-09-27T10:56:19;11.98;;;9.23;;
6937;SDS011;40040;42.706;23.372;2022-09-27T10:58:50;21.42;;;13.57;;
6937;SDS011;40040;42.706;23.372;2022-09-27T11:01:17;9.35;;;7.55;;
6937;SDS011;40040;42.706;23.372;2022-09-27T11:03:45;13.52;;;10.00;;
6937;SDS011;40040;42.706;23.372;2022-09-27T11:06:25;8.65;;;7.80;;
6937;SDS011;40040;42.706;23.372;2022-09-27T11:08:54;10.68;;;7.55;;
6937;SDS011;40040;42.706;23.372;2022-09-27T11:11:36;9.60;;;7.13;;
6937;SDS011;40040;42.706;23.372;2022-09-27T11:14:04;8.32;;;7.10;;
6937;SDS011;40040;42.706;23.372;2022-09-27T11:16:46;7.05;;;6.45;;
6937;SDS011;40040;42.706;23.372;2022-09-27T11:19:24;9.55;;;7.55;;
6937;SDS011;40040;42.706;23.372;2022-09-27T11:22:00;7.15;;;6.40;;
6937;SDS011;40040;42.706;23.372;2022-09-27T11:24:40;6.03;;;5.53;;
6937;SDS011;40040;42.706;23.372;2022-09-27T11:27:21;8.00;;;7.20;;
6937;SDS011;40040;42.706;23.372;2022-09-27T11:30:06;6.60;;;6.00;;
6937;SDS011;40040;42.706;23.372;2022-09-27T11:32:42;6.15;;;5.65;;
6937;SDS011;40040;42.706;23.372;2022-09-27T11:35:40;6.47;;;5.80;;
6937;SDS011;40040;42.706;23.372;2022-09-27T11:38:18;7.60;;;6.00;;
6937;SDS011;40040;42.706;23.372;2022-09-27T11:40:56;7.50;;;6.90;;
6937;SDS011;40040;42.706;23.372;2022-09-27T11:46:35;6.20;;;5.60;;
6937;SDS011;40040;42.706;23.372;2022-09-27T11:52:08;6.63;;;5.78;;
6937;SDS011;40040;42.706;23.372;2022-09-27T11:54:54;6.75;;;6.07;;
6937;SDS011;40040;42.706;23.372;2022-09-27T11:57:35;7.13;;;5.95;;
6937;SDS011;40040;42.706;23.372;2022-09-27T12:00:15;7.18;;;6.50;;
6937;SDS011;40040;42.706;23.372;2022-09-27T12:02:59;6.15;;;5.38;;
6937;SDS011;40040;42.706;23.372;2022-09-27T12:05:48;5.80;;;5.40;;
6937;SDS011;40040;42.706;23.372;2022-09-27T12:08:41;6.10;;;5.50;;
6937;SDS011;40040;42.706;23.372;2022-09-27T12:11:17;5.95;;;5.45;;
6937;SDS011;40040;42.706;23.372;2022-09-27T12:13:50;6.30;;;5.68;;
6937;SDS011;40040;42.706;23.372;2022-09-27T12:16:20;8.15;;;6.90;;
6937;SDS011;40040;42.706;23.372;2022-09-27T12:18:51;7.30;;;6.60;;
6937;SDS011;40040;42.706;23.372;2022-09-27T12:21:19;6.22;;;5.63;;
6937;SDS011;40040;42.706;23.372;2022-09-27T12:23:48;6.70;;;6.20;;
6937;SDS011;40040;42.706;23.372;2022-09-27T12:26:17;7.60;;;6.43;;
6937;SDS011;40040;42.706;23.372;2022-09-27T12:28:50;6.55;;;6.03;;
6937;SDS011;40040;42.706;23.372;2022-09-27T12:31:20;6.40;;;5.80;;
6937;SDS011;40040;42.706;23.372;2022-09-27T12:33:52;8.43;;;6.70;;
6937;SDS011;40040;42.706;23.372;2022-09-27T12:36:27;6.00;;;5.50;;
6937;SDS011;40040;42.706;23.372;2022-09-27T12:39:00;6.22;;;5.72;;
6937;SDS011;40040;42.706;23.372;2022-09-27T12:41:37;5.93;;;5.38;;
6937;SDS011;40040;42.706;23.372;2022-09-27T12:44:09;6.18;;;5.68;;
6937;SDS011;40040;42.706;23.372;2022-09-27T12:46:40;6.43;;;5.32;;
6937;SDS011;40040;42.706;23.372;2022-09-27T12:49:21;4.90;;;4.50;;
6937;SDS011;40040;42.706;23.372;2022-09-27T12:51:57;6.75;;;5.38;;
6937;SDS011;40040;42.706;23.372;2022-09-27T12:54:42;5.68;;;5.18;;
6937;SDS011;40040;42.706;23.372;2022-09-27T12:57:27;6.03;;;5.18;;
6937;SDS011;40040;42.706;23.372;2022-09-27T13:00:08;5.00;;;4.70;;
6937;SDS011;40040;42.706;23.372;2022-09-27T13:06:02;4.90;;;4.55;;
6937;SDS011;40040;42.706;23.372;2022-09-27T13:11:46;5.28;;;4.78;;
6937;SDS011;40040;42.706;23.372;2022-09-27T13:14:21;4.70;;;4.40;;
6937;SDS011;40040;42.706;23.372;2022-09-27T13:16:58;4.68;;;4.32;;
6937;SDS011;40040;42.706;23.372;2022-09-27T13:19:38;4.78;;;4.38;;
6937;SDS011;40040;42.706;23.372;2022-09-27T13:22:09;4.65;;;4.35;;
6937;SDS011;40040;42.706;23.372;2022-09-27T13:24:56;4.53;;;4.10;;
6937;SDS011;40040;42.706;23.372;2022-09-27T13:27:36;4.47;;;4.00;;
6937;SDS011;40040;42.706;23.372;2022-09-27T13:36:15;7.78;;;6.70;;
6937;SDS011;40040;42.706;23.372;2022-09-27T13:38:54;4.93;;;4.53;;
6937;SDS011;40040;42.706;23.372;2022-09-27T13:41:32;5.00;;;4.53;;
6937;SDS011;40040;42.706;23.372;2022-09-27T13:44:20;5.28;;;4.88;;
6937;SDS011;40040;42.706;23.372;2022-09-27T13:46:57;5.38;;;4.95;;
6937;SDS011;40040;42.706;23.372;2022-09-27T13:49:29;6.97;;;4.20;;
6937;SDS011;40040;42.706;23.372;2022-09-27T13:52:02;3.58;;;3.38;;
6937;SDS011;40040;42.706;23.372;2022-09-27T13:54:50;3.50;;;3.30;;
6937;SDS011;40040;42.706;23.372;2022-09-27T14:00:17;4.65;;;3.58;;
6937;SDS011;40040;42.706;23.372;2022-09-27T14:02:54;4.03;;;3.72;;
6937;SDS011;40040;42.706;23.372;2022-09-27T14:05:26;3.30;;;3.00;;
6937;SDS011;40040;42.706;23.372;2022-09-27T14:07:58;3.92;;;3.50;;
6937;SDS011;40040;42.706;23.372;2022-09-27T14:10:29;3.67;;;3.40;;
6937;SDS011;40040;42.706;23.372;2022-09-27T14:12:57;3.20;;;3.00;;
6937;SDS011;40040;42.706;23.372;2022-09-27T14:15:26;3.35;;;3.05;;
6937;SDS011;40040;42.706;23.372;2022-09-27T14:17:55;2.97;;;2.78;;
6937;SDS011;40040;42.706;23.372;2022-09-27T14:20:33;5.82;;;3.05;;
6937;SDS011;40040;42.706;23.372;2022-09-27T14:23:04;3.30;;;2.75;;
6937;SDS011;40040;42.706;23.372;2022-09-27T14:25:32;3.13;;;2.92;;
6937;SDS011;40040;42.706;23.372;2022-09-27T14:27:59;2.80;;;2.60;;
6937;SDS011;40040;42.706;23.372;2022-09-27T14:30:27;3.40;;;3.10;;
6937;SDS011;40040;42.706;23.372;2022-09-27T14:32:55;2.88;;;2.78;;
6937;SDS011;40040;42.706;23.372;2022-09-27T14:35:27;3.72;;;3.30;;
6937;SDS011;40040;42.706;23.372;2022-09-27T14:38:13;3.40;;;3.00;;
6937;SDS011;40040;42.706;23.372;2022-09-27T14:40:53;2.78;;;2.63;;
6937;SDS011;40040;42.706;23.372;2022-09-27T14:43:24;3.50;;;3.13;;
6937;SDS011;40040;42.706;23.372;2022-09-27T14:45:52;3.28;;;3.08;;
6937;SDS011;40040;42.706;23.372;2022-09-27T14:48:26;3.10;;;2.83;;
6937;SDS011;40040;42.706;23.372;2022-09-27T14:50:55;3.47;;;3.22;;
6937;SDS011;40040;42.706;23.372;2022-09-27T14:53:26;3.45;;;3.15;;
6937;SDS011;40040;42.706;23.372;2022-09-27T14:55:57;3.65;;;3.35;;
6937;SDS011;40040;42.706;23.372;2022-09-27T14:58:25;3.00;;;2.90;;
6937;SDS011;40040;42.706;23.372;2022-09-27T15:00:55;3.60;;;3.35;;
6937;SDS011;40040;42.706;23.372;2022-09-27T15:03:26;3.60;;;3.30;;
6937;SDS011;40040;42.706;23.372;2022-09-27T15:05:55;3.42;;;3.17;;
6937;SDS011;40040;42.706;23.372;2022-09-27T15:08:24;4.18;;;3.75;;
6937;SDS011;40040;42.706;23.372;2022-09-27T15:10:54;4.60;;;4.10;;
6937;SDS011;40040;42.706;23.372;2022-09-27T15:13:23;9.35;;;4.60;;
6937;SDS011;40040;42.706;23.372;2022-09-27T15:15:52;9.43;;;4.45;;
6937;SDS011;40040;42.706;23.372;2022-09-27T15:21:07;2.50;;;2.10;;
6937;SDS011;40040;42.706;23.372;2022-09-27T15:23:35;2.28;;;1.50;;
6937;SDS011;40040;42.706;23.372;2022-09-27T15:26:06;1.83;;;1.20;;
6937;SDS011;40040;42.706;23.372;2022-09-27T15:28:36;1.88;;;1.77;;
6937;SDS011;40040;42.706;23.372;2022-09-27T15:31:08;2.30;;;2.08;;